Pagrindinis puslapis
METAR-TAF:

METAR-TAF

Oro uostai :

Sacramento Executive Airport

Sakramentas, Kalifornija, Jungtinės Amerikos Valstijos

platuma: 38-30-25N, ilguma: 121-29-42W, Aukštis: 6 m

Dabartinis oras

Ataskaita buvo paskelbta 59 minutes, ne 06:53 UTC
Vėjas 6 kt iš Pietų/Pietvakarių
Temperatūra 26°C
Drėgmė 42%
Slėgis 1007 hPa
Matomumas: 16.1 km
Giedras dangus

METAR: KSAC 170653Z AUTO 21006KT 10SM CLR 26/12 A2973 RMK AO2 SLP068 T02560122

Laikas: 00:52 (07:52 UTC)

Prognozė

Ataskaita buvo paskelbta 2 valandos ir 32 minutes, ne 05:20 UTC
Prognozė galioja nuo 17 metu 06 UTC su 18 metu 06 UTC
Vėjas 6 kt iš Pietų/Pietvakarių
Matomumas: 10 km
Giedras dangus
Nuo 17 metu 0900 UTC
Vėjas 4 kt nuo kintamojo kryptimis
Matomumas: 10 km
Išsisklaidę debesys ne aukštis 18000 ft
Nuo 17 metu 2300 UTC
Vėjas 8 kt iš Pietvakarių
Matomumas: 10 km
Išsisklaidę debesys ne aukštis 18000 ft

TAF: KSAC 170520Z 1706/1806 21006KT P6SM SKC FM170900 VRB04KT P6SM SCT180 FM172300 23008KT P6SM SCT180

Orai ataskaitas ir orų prognozės (METAR, TAF).

turimą stotys yra geltonos ir raudonos taškus žemėlapyje.

Perkelti pele per norėdami pamatyti stoties vardą.

Tada spustelėkite, norėdami matyti oro stebėjimo ir prognozės.

Norėdami pakeisti žemėlapį: spustelėkite ant žalios mygtukų su juodo kryžiaus žemyn,; žalią mygtuką su brūkšneliu, jei norite nutolinti; arba žalių rodyklių gretimoms žemėlapius.


METAR-TAF: